Aviation Digital Data Service (ADDS)

Output produced by METARs form (1227 UTC 25 June 2019)
found at http://www.aviationweather.gov/metar/data/
 
METAR text: ZGGG 251200Z 12002MPS 8000 NSC 30/25 Q1005 NOSIG
Conditions at: ZGGG (GUANGZHOU/BAIYUN, CN) observed 1200 UTC 25 June 2019
Temperature: 30.0°C (86°F)
Dewpoint: 25.0°C (77°F) [RH = 75%]
Pressure (altimeter): 29.68 inches Hg (1005.0 mb)
Winds: from the ESE (120 degrees) at 5 MPH (4 knots; 2.1 m/s)
Visibility: 5 miles ( 8 km)
Ceiling: at least 12,000 feet AGL
Clouds: sky clear below 12,000 feet AGL
Weather: no significant weather observed at this time

METAR text: ZGGG 251130Z 09002MPS 8000 BKN053 30/24 Q1005 NOSIG
Conditions at: ZGGG (GUANGZHOU/BAIYUN, CN) observed 1130 UTC 25 June 2019
Temperature: 30.0°C (86°F)
Dewpoint: 24.0°C (75°F) [RH = 70%]
Pressure (altimeter): 29.68 inches Hg (1005.0 mb)
Winds: from the E (90 degrees) at 5 MPH (4 knots; 2.1 m/s)
Visibility: 5 miles ( 8 km)
Ceiling: 5300 feet AGL
Clouds: broken clouds at 5300 feet AGL
Weather: no significant weather observed at this time

METAR text: ZGGG 251100Z VRB01MPS 8000 BKN060 30/24 Q1005 NOSIG
Conditions at: ZGGG (GUANGZHOU/BAIYUN, CN) observed 1100 UTC 25 June 2019
Temperature: 30.0°C (86°F)
Dewpoint: 24.0°C (75°F) [RH = 70%]
Pressure (altimeter): 29.68 inches Hg (1005.0 mb)
Winds: variable direction winds at 2 MPH (2 knots; 1.0 m/s)
Visibility: 5 miles ( 8 km)
Ceiling: 6000 feet AGL
Clouds: broken clouds at 6000 feet AGL
Weather: no significant weather observed at this time

METAR text: ZGGG 251030Z 14001MPS 8000 NSC 30/25 Q1005 NOSIG
Conditions at: ZGGG (GUANGZHOU/BAIYUN, CN) observed 1030 UTC 25 June 2019
Temperature: 30.0°C (86°F)
Dewpoint: 25.0°C (77°F) [RH = 75%]
Pressure (altimeter): 29.68 inches Hg (1005.0 mb)
Winds: from the SE (140 degrees) at 2 MPH (2 knots; 1.0 m/s)
Visibility: 5 miles ( 8 km)
Ceiling: at least 12,000 feet AGL
Clouds: sky clear below 12,000 feet AGL
Weather: no significant weather observed at this time

METAR text: ZGGG 251000Z 00000MPS 8000 NSC 30/24 Q1004 NOSIG
Conditions at: ZGGG (GUANGZHOU/BAIYUN, CN) observed 1000 UTC 25 June 2019
Temperature: 30.0°C (86°F)
Dewpoint: 24.0°C (75°F) [RH = 70%]
Pressure (altimeter): 29.65 inches Hg (1004.0 mb)
Winds: calm
Visibility: 5 miles ( 8 km)
Ceiling: at least 12,000 feet AGL
Clouds: sky clear below 12,000 feet AGL
Weather: no significant weather observed at this time

METAR text: ZGGG 250930Z VRB01MPS 8000 NSC 30/25 Q1004 NOSIG
Conditions at: ZGGG (GUANGZHOU/BAIYUN, CN) observed 0930 UTC 25 June 2019
Temperature: 30.0°C (86°F)
Dewpoint: 25.0°C (77°F) [RH = 75%]
Pressure (altimeter): 29.65 inches Hg (1004.0 mb)
Winds: variable direction winds at 2 MPH (2 knots; 1.0 m/s)
Visibility: 5 miles ( 8 km)
Ceiling: at least 12,000 feet AGL
Clouds: sky clear below 12,000 feet AGL
Weather: no significant weather observed at this time

METAR text: ZGGG 250900Z 22002MPS 6000 -RA NSC 30/24 Q1004 NOSIG
Conditions at: ZGGG (GUANGZHOU/BAIYUN, CN) observed 0900 UTC 25 June 2019
Temperature: 30.0°C (86°F)
Dewpoint: 24.0°C (75°F) [RH = 70%]
Pressure (altimeter): 29.65 inches Hg (1004.0 mb)
Winds: from the SW (220 degrees) at 5 MPH (4 knots; 2.1 m/s)
Visibility: 4 miles ( 6 km)
Ceiling: at least 12,000 feet AGL
Clouds: sky clear below 12,000 feet AGL
Weather: -RA  (light rain)

METAR text: ZGGG 250830Z 20002MPS 160V230 6000 SCT025 BKN060 31/24 Q1004 NOSIG
Conditions at: ZGGG (GUANGZHOU/BAIYUN, CN) observed 0830 UTC 25 June 2019
Temperature: 31.0°C (88°F)
Dewpoint: 24.0°C (75°F) [RH = 66%]
Pressure (altimeter): 29.65 inches Hg (1004.0 mb)
Winds: from the SSW (200 degrees) at 5 MPH (4 knots; 2.1 m/s)
Visibility: 4 miles ( 6 km)
Ceiling: 6000 feet AGL
Clouds: scattered clouds at 2500 feet AGL
broken clouds at 6000 feet AGL
Weather: no significant weather observed at this time

METAR text: ZGGG 250800Z VRB02MPS 6000 SCT025 BKN060 31/24 Q1004 NOSIG
Conditions at: ZGGG (GUANGZHOU/BAIYUN, CN) observed 0800 UTC 25 June 2019
Temperature: 31.0°C (88°F)
Dewpoint: 24.0°C (75°F) [RH = 66%]
Pressure (altimeter): 29.65 inches Hg (1004.0 mb)
Winds: variable direction winds at 5 MPH (4 knots; 2.1 m/s)
Visibility: 4 miles ( 6 km)
Ceiling: 6000 feet AGL
Clouds: scattered clouds at 2500 feet AGL
broken clouds at 6000 feet AGL
Weather: no significant weather observed at this time

METAR text: ZGGG 250730Z 20002MPS 160V250 6000 SCT025 BKN060 31/24 Q1004 NOSIG
Conditions at: ZGGG (GUANGZHOU/BAIYUN, CN) observed 0730 UTC 25 June 2019
Temperature: 31.0°C (88°F)
Dewpoint: 24.0°C (75°F) [RH = 66%]
Pressure (altimeter): 29.65 inches Hg (1004.0 mb)
Winds: from the SSW (200 degrees) at 5 MPH (4 knots; 2.1 m/s)
Visibility: 4 miles ( 6 km)
Ceiling: 6000 feet AGL
Clouds: scattered clouds at 2500 feet AGL
broken clouds at 6000 feet AGL
Weather: no significant weather observed at this time

METAR text: ZGGG 250700Z 20002MPS 140V250 6000 SCT025 BKN060 31/24 Q1004 NOSIG
Conditions at: ZGGG (GUANGZHOU/BAIYUN, CN) observed 0700 UTC 25 June 2019
Temperature: 31.0°C (88°F)
Dewpoint: 24.0°C (75°F) [RH = 66%]
Pressure (altimeter): 29.65 inches Hg (1004.0 mb)
Winds: from the SSW (200 degrees) at 5 MPH (4 knots; 2.1 m/s)
Visibility: 4 miles ( 6 km)
Ceiling: 6000 feet AGL
Clouds: scattered clouds at 2500 feet AGL
broken clouds at 6000 feet AGL
Weather: no significant weather observed at this time

METAR text: ZGGG 250630Z 22002MPS 140V280 6000 SCT025 BKN060 30/24 Q1005 NOSIG
Conditions at: ZGGG (GUANGZHOU/BAIYUN, CN) observed 0630 UTC 25 June 2019
Temperature: 30.0°C (86°F)
Dewpoint: 24.0°C (75°F) [RH = 70%]
Pressure (altimeter): 29.68 inches Hg (1005.0 mb)
Winds: from the SW (220 degrees) at 5 MPH (4 knots; 2.1 m/s)
Visibility: 4 miles ( 6 km)
Ceiling: 6000 feet AGL
Clouds: scattered clouds at 2500 feet AGL
broken clouds at 6000 feet AGL
Weather: no significant weather observed at this time

METAR text: ZGGG 250600Z 22002MPS 160V290 6000 SCT025 BKN060 30/24 Q1005 NOSIG
Conditions at: ZGGG (GUANGZHOU/BAIYUN, CN) observed 0600 UTC 25 June 2019
Temperature: 30.0°C (86°F)
Dewpoint: 24.0°C (75°F) [RH = 70%]
Pressure (altimeter): 29.68 inches Hg (1005.0 mb)
Winds: from the SW (220 degrees) at 5 MPH (4 knots; 2.1 m/s)
Visibility: 4 miles ( 6 km)
Ceiling: 6000 feet AGL
Clouds: scattered clouds at 2500 feet AGL
broken clouds at 6000 feet AGL
Weather: no significant weather observed at this time

METAR text: ZGGG 250530Z 22002MPS 150V260 6000 SCT025 BKN060 30/24 Q1006 NOSIG
Conditions at: ZGGG (GUANGZHOU/BAIYUN, CN) observed 0530 UTC 25 June 2019
Temperature: 30.0°C (86°F)
Dewpoint: 24.0°C (75°F) [RH = 70%]
Pressure (altimeter): 29.70 inches Hg (1006.0 mb)
Winds: from the SW (220 degrees) at 5 MPH (4 knots; 2.1 m/s)
Visibility: 4 miles ( 6 km)
Ceiling: 6000 feet AGL
Clouds: scattered clouds at 2500 feet AGL
broken clouds at 6000 feet AGL
Weather: no significant weather observed at this time

METAR text: ZGGG 250500Z VRB01MPS 6000 SCT023 BKN060 30/24 Q1006 TEMPO SHRA
Conditions at: ZGGG (GUANGZHOU/BAIYUN, CN) observed 0500 UTC 25 June 2019
Temperature: 30.0°C (86°F)
Dewpoint: 24.0°C (75°F) [RH = 70%]
Pressure (altimeter): 29.70 inches Hg (1006.0 mb)
Winds: variable direction winds at 2 MPH (2 knots; 1.0 m/s)
Visibility: 4 miles ( 6 km)
Ceiling: 6000 feet AGL
Clouds: scattered clouds at 2300 feet AGL
broken clouds at 6000 feet AGL
Weather: no significant weather observed at this time

METAR text: ZGGG 250430Z 31002MPS 260V040 6000 -RA SCT016 BKN050 30/25 Q1007 TEMPO SHRA
Conditions at: ZGGG (GUANGZHOU/BAIYUN, CN) observed 0430 UTC 25 June 2019
Temperature: 30.0°C (86°F)
Dewpoint: 25.0°C (77°F) [RH = 75%]
Pressure (altimeter): 29.73 inches Hg (1007.0 mb)
Winds: from the NW (310 degrees) at 5 MPH (4 knots; 2.1 m/s)
Visibility: 4 miles ( 6 km)
Ceiling: 5000 feet AGL
Clouds: scattered clouds at 1600 feet AGL
broken clouds at 5000 feet AGL
Weather: -RA  (light rain)

METAR text: ZGGG 250400Z VRB01MPS 7000 -RA SCT016 BKN050 29/24 Q1007 NOSIG
Conditions at: ZGGG (GUANGZHOU/BAIYUN, CN) observed 0400 UTC 25 June 2019
Temperature: 29.0°C (84°F)
Dewpoint: 24.0°C (75°F) [RH = 74%]
Pressure (altimeter): 29.73 inches Hg (1007.0 mb)
Winds: variable direction winds at 2 MPH (2 knots; 1.0 m/s)
Visibility: 4 miles ( 7 km)
Ceiling: 5000 feet AGL
Clouds: scattered clouds at 1600 feet AGL
broken clouds at 5000 feet AGL
Weather: -RA  (light rain)

METAR text: ZGGG 250330Z VRB01MPS 6000 -RA SCT016 BKN050 28/24 Q1007 NOSIG
Conditions at: ZGGG (GUANGZHOU/BAIYUN, CN) observed 0330 UTC 25 June 2019
Temperature: 28.0°C (82°F)
Dewpoint: 24.0°C (75°F) [RH = 79%]
Pressure (altimeter): 29.73 inches Hg (1007.0 mb)
Winds: variable direction winds at 2 MPH (2 knots; 1.0 m/s)
Visibility: 4 miles ( 6 km)
Ceiling: 5000 feet AGL
Clouds: scattered clouds at 1600 feet AGL
broken clouds at 5000 feet AGL
Weather: -RA  (light rain)

METAR text: ZGGG 250300Z VRB01MPS 6000 -RA SCT016 BKN050 28/24 Q1007 NOSIG
Conditions at: ZGGG (GUANGZHOU/BAIYUN, CN) observed 0300 UTC 25 June 2019
Temperature: 28.0°C (82°F)
Dewpoint: 24.0°C (75°F) [RH = 79%]
Pressure (altimeter): 29.73 inches Hg (1007.0 mb)
Winds: variable direction winds at 2 MPH (2 knots; 1.0 m/s)
Visibility: 4 miles ( 6 km)
Ceiling: 5000 feet AGL
Clouds: scattered clouds at 1600 feet AGL
broken clouds at 5000 feet AGL
Weather: -RA  (light rain)

METAR text: ZGGG 250230Z 00000MPS 6000 SCT015 BKN050 29/24 Q1008 NOSIG
Conditions at: ZGGG (GUANGZHOU/BAIYUN, CN) observed 0230 UTC 25 June 2019
Temperature: 29.0°C (84°F)
Dewpoint: 24.0°C (75°F) [RH = 74%]
Pressure (altimeter): 29.76 inches Hg (1008.0 mb)
Winds: calm
Visibility: 4 miles ( 6 km)
Ceiling: 5000 feet AGL
Clouds: scattered clouds at 1500 feet AGL
broken clouds at 5000 feet AGL
Weather: no significant weather observed at this time

METAR text: ZGGG 250200Z VRB01MPS 6000 SCT015 BKN050 28/23 Q1008 NOSIG
Conditions at: ZGGG (GUANGZHOU/BAIYUN, CN) observed 0200 UTC 25 June 2019
Temperature: 28.0°C (82°F)
Dewpoint: 23.0°C (73°F) [RH = 74%]
Pressure (altimeter): 29.76 inches Hg (1008.0 mb)
Winds: variable direction winds at 2 MPH (2 knots; 1.0 m/s)
Visibility: 4 miles ( 6 km)
Ceiling: 5000 feet AGL
Clouds: scattered clouds at 1500 feet AGL
broken clouds at 5000 feet AGL
Weather: no significant weather observed at this time

METAR text: ZGGG 250130Z 11002MPS 070V150 4000 BR SCT015 BKN050 27/24 Q1008 NOSIG
Conditions at: ZGGG (GUANGZHOU/BAIYUN, CN) observed 0130 UTC 25 June 2019
Temperature: 27.0°C (81°F)
Dewpoint: 24.0°C (75°F) [RH = 84%]
Pressure (altimeter): 29.76 inches Hg (1008.0 mb)
Winds: from the ESE (110 degrees) at 5 MPH (4 knots; 2.1 m/s)
Visibility: 2.49 miles (4.01 km)
Ceiling: 5000 feet AGL
Clouds: scattered clouds at 1500 feet AGL
broken clouds at 5000 feet AGL
Weather: BR  (mist)

METAR text: ZGGG 250100Z 06002MPS 360V120 4000 BR SCT015 BKN050 27/24 Q1008 NOSIG
Conditions at: ZGGG (GUANGZHOU/BAIYUN, CN) observed 0100 UTC 25 June 2019
Temperature: 27.0°C (81°F)
Dewpoint: 24.0°C (75°F) [RH = 84%]
Pressure (altimeter): 29.76 inches Hg (1008.0 mb)
Winds: from the ENE (60 degrees) at 5 MPH (4 knots; 2.1 m/s)
Visibility: 2.49 miles (4.01 km)
Ceiling: 5000 feet AGL
Clouds: scattered clouds at 1500 feet AGL
broken clouds at 5000 feet AGL
Weather: BR  (mist)

METAR text: ZGGG 250030Z 06002MPS 020V100 4000 BR SCT015 BKN050 26/24 Q1008 NOSIG
Conditions at: ZGGG (GUANGZHOU/BAIYUN, CN) observed 0030 UTC 25 June 2019
Temperature: 26.0°C (79°F)
Dewpoint: 24.0°C (75°F) [RH = 89%]
Pressure (altimeter): 29.76 inches Hg (1008.0 mb)
Winds: from the ENE (60 degrees) at 5 MPH (4 knots; 2.1 m/s)
Visibility: 2.49 miles (4.01 km)
Ceiling: 5000 feet AGL
Clouds: scattered clouds at 1500 feet AGL
broken clouds at 5000 feet AGL
Weather: BR  (mist)

METAR text: ZGGG 250000Z VRB01MPS 4000 BR SCT015 BKN050 26/24 Q1008 NOSIG
Conditions at: ZGGG (GUANGZHOU/BAIYUN, CN) observed 0000 UTC 25 June 2019
Temperature: 26.0°C (79°F)
Dewpoint: 24.0°C (75°F) [RH = 89%]
Pressure (altimeter): 29.76 inches Hg (1008.0 mb)
Winds: variable direction winds at 2 MPH (2 knots; 1.0 m/s)
Visibility: 2.49 miles (4.01 km)
Ceiling: 5000 feet AGL
Clouds: scattered clouds at 1500 feet AGL
broken clouds at 5000 feet AGL
Weather: BR  (mist)

METAR text: ZGGG 242330Z VRB01MPS 3500 BR SCT011 BKN050 25/24 Q1008 NOSIG
Conditions at: ZGGG (GUANGZHOU/BAIYUN, CN) observed 2330 UTC 24 June 2019
Temperature: 25.0°C (77°F)
Dewpoint: 24.0°C (75°F) [RH = 94%]
Pressure (altimeter): 29.76 inches Hg (1008.0 mb)
Winds: variable direction winds at 2 MPH (2 knots; 1.0 m/s)
Visibility: 2.17 miles (3.49 km)
Ceiling: 5000 feet AGL
Clouds: scattered clouds at 1100 feet AGL
broken clouds at 5000 feet AGL
Weather: BR  (mist)

METAR text: ZGGG 242300Z VRB01MPS 4800 BR FEW013 SCT060 25/24 Q1007 NOSIG
Conditions at: ZGGG (GUANGZHOU/BAIYUN, CN) observed 2300 UTC 24 June 2019
Temperature: 25.0°C (77°F)
Dewpoint: 24.0°C (75°F) [RH = 94%]
Pressure (altimeter): 29.73 inches Hg (1007.0 mb)
Winds: variable direction winds at 2 MPH (2 knots; 1.0 m/s)
Visibility: 2.98 miles (4.80 km)
Ceiling: at least 12,000 feet AGL
Clouds: few clouds at 1300 feet AGL
scattered clouds at 6000 feet AGL
Weather: BR  (mist)

METAR text: ZGGG 242230Z 09001MPS 4800 BR SCT060 25/24 Q1007 NOSIG
Conditions at: ZGGG (GUANGZHOU/BAIYUN, CN) observed 2230 UTC 24 June 2019
Temperature: 25.0°C (77°F)
Dewpoint: 24.0°C (75°F) [RH = 94%]
Pressure (altimeter): 29.73 inches Hg (1007.0 mb)
Winds: from the E (90 degrees) at 2 MPH (2 knots; 1.0 m/s)
Visibility: 2.98 miles (4.80 km)
Ceiling: at least 12,000 feet AGL
Clouds: scattered clouds at 6000 feet AGL
Weather: BR  (mist)

METAR text: ZGGG 242200Z VRB01MPS 4500 BR BKN060 25/23 Q1007 NOSIG
Conditions at: ZGGG (GUANGZHOU/BAIYUN, CN) observed 2200 UTC 24 June 2019
Temperature: 25.0°C (77°F)
Dewpoint: 23.0°C (73°F) [RH = 89%]
Pressure (altimeter): 29.73 inches Hg (1007.0 mb)
Winds: variable direction winds at 2 MPH (2 knots; 1.0 m/s)
Visibility: 2.80 miles (4.51 km)
Ceiling: 6000 feet AGL
Clouds: broken clouds at 6000 feet AGL
Weather: BR  (mist)

METAR text: ZGGG 242130Z 08001MPS 6000 FEW013 OVC060 25/23 Q1006 NOSIG
Conditions at: ZGGG (GUANGZHOU/BAIYUN, CN) observed 2130 UTC 24 June 2019
Temperature: 25.0°C (77°F)
Dewpoint: 23.0°C (73°F) [RH = 89%]
Pressure (altimeter): 29.70 inches Hg (1006.0 mb)
Winds: from the E (80 degrees) at 2 MPH (2 knots; 1.0 m/s)
Visibility: 4 miles ( 6 km)
Ceiling: 6000 feet AGL
Clouds: few clouds at 1300 feet AGL
overcast cloud deck at 6000 feet AGL
Weather: no significant weather observed at this time

METAR text: ZGGG 242100Z 06001MPS 6000 -RA SCT013 OVC060 25/23 Q1006 NOSIG
Conditions at: ZGGG (GUANGZHOU/BAIYUN, CN) observed 2100 UTC 24 June 2019
Temperature: 25.0°C (77°F)
Dewpoint: 23.0°C (73°F) [RH = 89%]
Pressure (altimeter): 29.70 inches Hg (1006.0 mb)
Winds: from the ENE (60 degrees) at 2 MPH (2 knots; 1.0 m/s)
Visibility: 4 miles ( 6 km)
Ceiling: 6000 feet AGL
Clouds: scattered clouds at 1300 feet AGL
overcast cloud deck at 6000 feet AGL
Weather: -RA  (light rain)

METAR text: ZGGG 242030Z VRB01MPS 6000 -RA SCT013 OVC060 25/23 Q1006 NOSIG
Conditions at: ZGGG (GUANGZHOU/BAIYUN, CN) observed 2030 UTC 24 June 2019
Temperature: 25.0°C (77°F)
Dewpoint: 23.0°C (73°F) [RH = 89%]
Pressure (altimeter): 29.70 inches Hg (1006.0 mb)
Winds: variable direction winds at 2 MPH (2 knots; 1.0 m/s)
Visibility: 4 miles ( 6 km)
Ceiling: 6000 feet AGL
Clouds: scattered clouds at 1300 feet AGL
overcast cloud deck at 6000 feet AGL
Weather: -RA  (light rain)

METAR text: ZGGG 242000Z 17001MPS 6000 -RA SCT013 OVC060 25/23 Q1006 NOSIG
Conditions at: ZGGG (GUANGZHOU/BAIYUN, CN) observed 2000 UTC 24 June 2019
Temperature: 25.0°C (77°F)
Dewpoint: 23.0°C (73°F) [RH = 89%]
Pressure (altimeter): 29.70 inches Hg (1006.0 mb)
Winds: from the S (170 degrees) at 2 MPH (2 knots; 1.0 m/s)
Visibility: 4 miles ( 6 km)
Ceiling: 6000 feet AGL
Clouds: scattered clouds at 1300 feet AGL
overcast cloud deck at 6000 feet AGL
Weather: -RA  (light rain)

METAR text: ZGGG 241930Z 18001MPS 6000 -RA SCT013 OVC060 25/23 Q1006 NOSIG
Conditions at: ZGGG (GUANGZHOU/BAIYUN, CN) observed 1930 UTC 24 June 2019
Temperature: 25.0°C (77°F)
Dewpoint: 23.0°C (73°F) [RH = 89%]
Pressure (altimeter): 29.70 inches Hg (1006.0 mb)
Winds: from the S (180 degrees) at 2 MPH (2 knots; 1.0 m/s)
Visibility: 4 miles ( 6 km)
Ceiling: 6000 feet AGL
Clouds: scattered clouds at 1300 feet AGL
overcast cloud deck at 6000 feet AGL
Weather: -RA  (light rain)

METAR text: ZGGG 241900Z 00000MPS 8000 SCT013 25/23 Q1006 NOSIG
Conditions at: ZGGG (GUANGZHOU/BAIYUN, CN) observed 1900 UTC 24 June 2019
Temperature: 25.0°C (77°F)
Dewpoint: 23.0°C (73°F) [RH = 89%]
Pressure (altimeter): 29.70 inches Hg (1006.0 mb)
Winds: calm
Visibility: 5 miles ( 8 km)
Ceiling: at least 12,000 feet AGL
Clouds: scattered clouds at 1300 feet AGL
Weather: no significant weather observed at this time

METAR text: ZGGG 241830Z VRB01MPS 6000 SCT006 25/23 Q1006 NOSIG
Conditions at: ZGGG (GUANGZHOU/BAIYUN, CN) observed 1830 UTC 24 June 2019
Temperature: 25.0°C (77°F)
Dewpoint: 23.0°C (73°F) [RH = 89%]
Pressure (altimeter): 29.70 inches Hg (1006.0 mb)
Winds: variable direction winds at 2 MPH (2 knots; 1.0 m/s)
Visibility: 4 miles ( 6 km)
Ceiling: at least 12,000 feet AGL
Clouds: scattered clouds at 600 feet AGL
Weather: no significant weather observed at this time

METAR text: ZGGG 241800Z 03002MPS 340V060 6000 SCT006 25/23 Q1005 NOSIG
Conditions at: ZGGG (GUANGZHOU/BAIYUN, CN) observed 1800 UTC 24 June 2019
Temperature: 25.0°C (77°F)
Dewpoint: 23.0°C (73°F) [RH = 89%]
Pressure (altimeter): 29.68 inches Hg (1005.0 mb)
Winds: from the NNE (30 degrees) at 5 MPH (4 knots; 2.1 m/s)
Visibility: 4 miles ( 6 km)
Ceiling: at least 12,000 feet AGL
Clouds: scattered clouds at 600 feet AGL
Weather: no significant weather observed at this time

METAR text: ZGGG 241730Z 03002MPS 360V060 7000 SCT006 25/23 Q1005 NOSIG
Conditions at: ZGGG (GUANGZHOU/BAIYUN, CN) observed 1730 UTC 24 June 2019
Temperature: 25.0°C (77°F)
Dewpoint: 23.0°C (73°F) [RH = 89%]
Pressure (altimeter): 29.68 inches Hg (1005.0 mb)
Winds: from the NNE (30 degrees) at 5 MPH (4 knots; 2.1 m/s)
Visibility: 4 miles ( 7 km)
Ceiling: at least 12,000 feet AGL
Clouds: scattered clouds at 600 feet AGL
Weather: no significant weather observed at this time

METAR text: ZGGG 241700Z 07002MPS 020V100 6000 SCT010 25/23 Q1006 NOSIG
Conditions at: ZGGG (GUANGZHOU/BAIYUN, CN) observed 1700 UTC 24 June 2019
Temperature: 25.0°C (77°F)
Dewpoint: 23.0°C (73°F) [RH = 89%]
Pressure (altimeter): 29.70 inches Hg (1006.0 mb)
Winds: from the ENE (70 degrees) at 5 MPH (4 knots; 2.1 m/s)
Visibility: 4 miles ( 6 km)
Ceiling: at least 12,000 feet AGL
Clouds: scattered clouds at 1000 feet AGL
Weather: no significant weather observed at this time

METAR text: ZGGG 241630Z 06003MPS 010V080 8000 SCT010 25/23 Q1006 NOSIG
Conditions at: ZGGG (GUANGZHOU/BAIYUN, CN) observed 1630 UTC 24 June 2019
Temperature: 25.0°C (77°F)
Dewpoint: 23.0°C (73°F) [RH = 89%]
Pressure (altimeter): 29.70 inches Hg (1006.0 mb)
Winds: from the ENE (60 degrees) at 7 MPH (6 knots; 3.1 m/s)
Visibility: 5 miles ( 8 km)
Ceiling: at least 12,000 feet AGL
Clouds: scattered clouds at 1000 feet AGL
Weather: no significant weather observed at this time

METAR text: ZGGG 241600Z 04003MPS 010V070 9999 SCT010 25/23 Q1006 NOSIG
Conditions at: ZGGG (GUANGZHOU/BAIYUN, CN) observed 1600 UTC 24 June 2019
Temperature: 25.0°C (77°F)
Dewpoint: 23.0°C (73°F) [RH = 89%]
Pressure (altimeter): 29.70 inches Hg (1006.0 mb)
Winds: from the NE (40 degrees) at 7 MPH (6 knots; 3.1 m/s)
Visibility: 6 or more miles (10+ km)
Ceiling: at least 12,000 feet AGL
Clouds: scattered clouds at 1000 feet AGL
Weather: no significant weather observed at this time

METAR text: ZGGG 241530Z 09002MPS 060V120 9999 SCT046 25/24 Q1007 NOSIG
Conditions at: ZGGG (GUANGZHOU/BAIYUN, CN) observed 1530 UTC 24 June 2019
Temperature: 25.0°C (77°F)
Dewpoint: 24.0°C (75°F) [RH = 94%]
Pressure (altimeter): 29.73 inches Hg (1007.0 mb)
Winds: from the E (90 degrees) at 5 MPH (4 knots; 2.1 m/s)
Visibility: 6 or more miles (10+ km)
Ceiling: at least 12,000 feet AGL
Clouds: scattered clouds at 4600 feet AGL
Weather: no significant weather observed at this time

METAR text: ZGGG 241500Z 16002MPS 140V200 9999 SCT046 25/24 Q1007 NOSIG
Conditions at: ZGGG (GUANGZHOU/BAIYUN, CN) observed 1500 UTC 24 June 2019
Temperature: 25.0°C (77°F)
Dewpoint: 24.0°C (75°F) [RH = 94%]
Pressure (altimeter): 29.73 inches Hg (1007.0 mb)
Winds: from the SSE (160 degrees) at 5 MPH (4 knots; 2.1 m/s)
Visibility: 6 or more miles (10+ km)
Ceiling: at least 12,000 feet AGL
Clouds: scattered clouds at 4600 feet AGL
Weather: no significant weather observed at this time

METAR text: ZGGG 241430Z 14003MPS 9000 -SHRA SCT046 25/23 Q1007 NOSIG
Conditions at: ZGGG (GUANGZHOU/BAIYUN, CN) observed 1430 UTC 24 June 2019
Temperature: 25.0°C (77°F)
Dewpoint: 23.0°C (73°F) [RH = 89%]
Pressure (altimeter): 29.73 inches Hg (1007.0 mb)
Winds: from the SE (140 degrees) at 7 MPH (6 knots; 3.1 m/s)
Visibility: 6 miles ( 9 km)
Ceiling: at least 12,000 feet AGL
Clouds: scattered clouds at 4600 feet AGL
Weather: -SHRA  (light rain showers)

METAR text: ZGGG 241400Z 15002MPS 7000 -SHRA FEW006 FEW033CB BKN033 25/23 Q1007 NOSIG
Conditions at: ZGGG (GUANGZHOU/BAIYUN, CN) observed 1400 UTC 24 June 2019
Temperature: 25.0°C (77°F)
Dewpoint: 23.0°C (73°F) [RH = 89%]
Pressure (altimeter): 29.73 inches Hg (1007.0 mb)
Winds: from the SSE (150 degrees) at 5 MPH (4 knots; 2.1 m/s)
Visibility: 4 miles ( 7 km)
Ceiling: 3300 feet AGL
Clouds: few clouds at 600 feet AGL
few clouds at 3300 feet AGL
broken clouds at 3300 feet AGL
Weather: -SHRA  (light rain showers)

METAR text: ZGGG 241330Z 16002MPS 7000 -SHRA FEW006 FEW033CB BKN033 25/24 Q1007 RESHRA NOSIG
Conditions at: ZGGG (GUANGZHOU/BAIYUN, CN) observed 1330 UTC 24 June 2019
Temperature: 25.0°C (77°F)
Dewpoint: 24.0°C (75°F) [RH = 94%]
Pressure (altimeter): 29.73 inches Hg (1007.0 mb)
Winds: from the SSE (160 degrees) at 5 MPH (4 knots; 2.1 m/s)
Visibility: 4 miles ( 7 km)
Ceiling: 3300 feet AGL
Clouds: few clouds at 600 feet AGL
few clouds at 3300 feet AGL
broken clouds at 3300 feet AGL
Weather: -SHRA  (light rain showers)

METAR text: ZGGG 241300Z 20002MPS 6000 SHRA SCT005 FEW033CB BKN033 25/24 Q1007 BECMG AT1320 -SHRA
Conditions at: ZGGG (GUANGZHOU/BAIYUN, CN) observed 1300 UTC 24 June 2019
Temperature: 25.0°C (77°F)
Dewpoint: 24.0°C (75°F) [RH = 94%]
Pressure (altimeter): 29.73 inches Hg (1007.0 mb)
Winds: from the SSW (200 degrees) at 5 MPH (4 knots; 2.1 m/s)
Visibility: 4 miles ( 6 km)
Ceiling: 3300 feet AGL
Clouds: scattered clouds at 500 feet AGL
few clouds at 3300 feet AGL
broken clouds at 3300 feet AGL
Weather: SHRA  (rain showers)

METAR text: ZGGG 241230Z 22002MPS 180V250 5000 SHRA SCT005 FEW033CB BKN033 25/24 Q1007 BECMG AT1320 -SHRA
Conditions at: ZGGG (GUANGZHOU/BAIYUN, CN) observed 1230 UTC 24 June 2019
Temperature: 25.0°C (77°F)
Dewpoint: 24.0°C (75°F) [RH = 94%]
Pressure (altimeter): 29.73 inches Hg (1007.0 mb)
Winds: from the SW (220 degrees) at 5 MPH (4 knots; 2.1 m/s)
Visibility: 3 miles ( 5 km)
Ceiling: 3300 feet AGL
Clouds: scattered clouds at 500 feet AGL
few clouds at 3300 feet AGL
broken clouds at 3300 feet AGL
Weather: SHRA  (rain showers)

METAR text: ZGGG 241200Z VRB01MPS 7000 -SHRA FEW005 FEW033CB BKN033 25/24 Q1007 NOSIG
Conditions at: ZGGG (GUANGZHOU/BAIYUN, CN) observed 1200 UTC 24 June 2019
Temperature: 25.0°C (77°F)
Dewpoint: 24.0°C (75°F) [RH = 94%]
Pressure (altimeter): 29.73 inches Hg (1007.0 mb)
Winds: variable direction winds at 2 MPH (2 knots; 1.0 m/s)
Visibility: 4 miles ( 7 km)
Ceiling: 3300 feet AGL
Clouds: few clouds at 500 feet AGL
few clouds at 3300 feet AGL
broken clouds at 3300 feet AGL
Weather: -SHRA  (light rain showers)

METAR text: ZGGG 241130Z 20001MPS 5000 -SHRA SCT005 FEW033CB BKN033 25/24 Q1006 NOSIG
Conditions at: ZGGG (GUANGZHOU/BAIYUN, CN) observed 1130 UTC 24 June 2019
Temperature: 25.0°C (77°F)
Dewpoint: 24.0°C (75°F) [RH = 94%]
Pressure (altimeter): 29.70 inches Hg (1006.0 mb)
Winds: from the SSW (200 degrees) at 2 MPH (2 knots; 1.0 m/s)
Visibility: 3 miles ( 5 km)
Ceiling: 3300 feet AGL
Clouds: scattered clouds at 500 feet AGL
few clouds at 3300 feet AGL
broken clouds at 3300 feet AGL
Weather: -SHRA  (light rain showers)

METAR text: ZGGG 241100Z 00000MPS 4000 -SHRA SCT008 FEW033CB BKN033 25/23 Q1006 NOSIG
Conditions at: ZGGG (GUANGZHOU/BAIYUN, CN) observed 1100 UTC 24 June 2019
Temperature: 25.0°C (77°F)
Dewpoint: 23.0°C (73°F) [RH = 89%]
Pressure (altimeter): 29.70 inches Hg (1006.0 mb)
Winds: calm
Visibility: 2.49 miles (4.01 km)
Ceiling: 3300 feet AGL
Clouds: scattered clouds at 800 feet AGL
few clouds at 3300 feet AGL
broken clouds at 3300 feet AGL
Weather: -SHRA  (light rain showers)

METAR text: ZGGG 241030Z 00000MPS 4800 -SHRA SCT008 FEW033CB BKN033 25/23 Q1006 RESHRA NOSIG
Conditions at: ZGGG (GUANGZHOU/BAIYUN, CN) observed 1030 UTC 24 June 2019
Temperature: 25.0°C (77°F)
Dewpoint: 23.0°C (73°F) [RH = 89%]
Pressure (altimeter): 29.70 inches Hg (1006.0 mb)
Winds: calm
Visibility: 2.98 miles (4.80 km)
Ceiling: 3300 feet AGL
Clouds: scattered clouds at 800 feet AGL
few clouds at 3300 feet AGL
broken clouds at 3300 feet AGL
Weather: -SHRA  (light rain showers)

METAR text: ZGGG 241000Z 17002MPS 3500 SHRA SCT013 SCT030CB BKN030 24/23 Q1006 BECMG AT1100 -SHRA
Conditions at: ZGGG (GUANGZHOU/BAIYUN, CN) observed 1000 UTC 24 June 2019
Temperature: 24.0°C (75°F)
Dewpoint: 23.0°C (73°F) [RH = 94%]
Pressure (altimeter): 29.70 inches Hg (1006.0 mb)
Winds: from the S (170 degrees) at 5 MPH (4 knots; 2.1 m/s)
Visibility: 2.17 miles (3.49 km)
Ceiling: 3000 feet AGL
Clouds: scattered clouds at 1300 feet AGL
scattered clouds at 3000 feet AGL
broken clouds at 3000 feet AGL
Weather: SHRA  (rain showers)

METAR text: ZGGG 240930Z 18002MPS 3200 SHRA SCT013 SCT030CB BKN030 24/23 Q1006 BECMG AT1100 -SHRA
Conditions at: ZGGG (GUANGZHOU/BAIYUN, CN) observed 0930 UTC 24 June 2019
Temperature: 24.0°C (75°F)
Dewpoint: 23.0°C (73°F) [RH = 94%]
Pressure (altimeter): 29.70 inches Hg (1006.0 mb)
Winds: from the S (180 degrees) at 5 MPH (4 knots; 2.1 m/s)
Visibility: 1.99 miles (3.20 km)
Ceiling: 3000 feet AGL
Clouds: scattered clouds at 1300 feet AGL
scattered clouds at 3000 feet AGL
broken clouds at 3000 feet AGL
Weather: SHRA  (rain showers)

METAR text: ZGGG 240900Z 16002MPS 120V200 2500 SHRA SCT013 SCT030CB BKN030 24/23 Q1006 BECMG AT1020 -SHRA
Conditions at: ZGGG (GUANGZHOU/BAIYUN, CN) observed 0900 UTC 24 June 2019
Temperature: 24.0°C (75°F)
Dewpoint: 23.0°C (73°F) [RH = 94%]
Pressure (altimeter): 29.70 inches Hg (1006.0 mb)
Winds: from the SSE (160 degrees) at 5 MPH (4 knots; 2.1 m/s)
Visibility: 1.55 miles (2.49 km)
Ceiling: 3000 feet AGL
Clouds: scattered clouds at 1300 feet AGL
scattered clouds at 3000 feet AGL
broken clouds at 3000 feet AGL
Weather: SHRA  (rain showers)

METAR text: ZGGG 240830Z 17003MPS 140V210 2000 +SHRA FEW005 SCT010 SCT030CB BKN030 24/23 Q1006 BECMG AT0920 SHRA
Conditions at: ZGGG (GUANGZHOU/BAIYUN, CN) observed 0830 UTC 24 June 2019
Temperature: 24.0°C (75°F)
Dewpoint: 23.0°C (73°F) [RH = 94%]
Pressure (altimeter): 29.70 inches Hg (1006.0 mb)
Winds: from the S (170 degrees) at 7 MPH (6 knots; 3.1 m/s)
Visibility: 1.24 miles (2.00 km)
Ceiling: 3000 feet AGL
Clouds: few clouds at 500 feet AGL
scattered clouds at 1000 feet AGL
scattered clouds at 3000 feet AGL
broken clouds at 3000 feet AGL
Weather: +SHRA  (heavy rain showers)

METAR text: ZGGG 240800Z 19004MPS 150V210 4000 -SHRA FEW005 SCT010 FEW030CB BKN030 25/23 Q1005 RESHRA BECMG AT0820 1000 +SHRA
Conditions at: ZGGG (GUANGZHOU/BAIYUN, CN) observed 0800 UTC 24 June 2019
Temperature: 25.0°C (77°F)
Dewpoint: 23.0°C (73°F) [RH = 89%]
Pressure (altimeter): 29.68 inches Hg (1005.0 mb)
Winds: from the S (190 degrees) at 9 MPH (8 knots; 4.1 m/s)
Visibility: 2.49 miles (4.01 km)
Ceiling: 3000 feet AGL
Clouds: few clouds at 500 feet AGL
scattered clouds at 1000 feet AGL
few clouds at 3000 feet AGL
broken clouds at 3000 feet AGL
Weather: -SHRA  (light rain showers)

METAR text: ZGGG 240730Z 20004G09MPS 130V250 4500 -SHRA FEW003 SCT008 FEW030CB BKN030 25/24 Q1005 RESHRA BECMG AT0820 1000 +SHRA
Conditions at: ZGGG (GUANGZHOU/BAIYUN, CN) observed 0730 UTC 24 June 2019
Temperature: 25.0°C (77°F)
Dewpoint: 24.0°C (75°F) [RH = 94%]
Pressure (altimeter): 29.68 inches Hg (1005.0 mb)
Winds: from the SSW (200 degrees) at 9 MPH (8 knots; 4.1 m/s)
gusting to 20 MPH (17 knots; 8.7 m/s)
Visibility: 2.80 miles (4.51 km)
Ceiling: 3000 feet AGL
Clouds: few clouds at 300 feet AGL
scattered clouds at 800 feet AGL
few clouds at 3000 feet AGL
broken clouds at 3000 feet AGL
Weather: -SHRA  (light rain showers)

METAR text: ZGGG 240700Z 16003MPS 140V200 2000 SHRA FEW003 SCT009 SCT026CB BKN026 25/24 Q1006 BECMG AT0730 4000 -SHRA
Conditions at: ZGGG (GUANGZHOU/BAIYUN, CN) observed 0700 UTC 24 June 2019
Temperature: 25.0°C (77°F)
Dewpoint: 24.0°C (75°F) [RH = 94%]
Pressure (altimeter): 29.70 inches Hg (1006.0 mb)
Winds: from the SSE (160 degrees) at 7 MPH (6 knots; 3.1 m/s)
Visibility: 1.24 miles (2.00 km)
Ceiling: 2600 feet AGL
Clouds: few clouds at 300 feet AGL
scattered clouds at 900 feet AGL
scattered clouds at 2600 feet AGL
broken clouds at 2600 feet AGL
Weather: SHRA  (rain showers)

METAR text: ZGGG 240630Z 14002MPS 110V170 5000 -SHRA FEW007 SCT013 FEW030CB BKN030 26/24 Q1006 RESHRA NOSIG
Conditions at: ZGGG (GUANGZHOU/BAIYUN, CN) observed 0630 UTC 24 June 2019
Temperature: 26.0°C (79°F)
Dewpoint: 24.0°C (75°F) [RH = 89%]
Pressure (altimeter): 29.70 inches Hg (1006.0 mb)
Winds: from the SE (140 degrees) at 5 MPH (4 knots; 2.1 m/s)
Visibility: 3 miles ( 5 km)
Ceiling: 3000 feet AGL
Clouds: few clouds at 700 feet AGL
scattered clouds at 1300 feet AGL
few clouds at 3000 feet AGL
broken clouds at 3000 feet AGL
Weather: -SHRA  (light rain showers)

METAR text: ZGGG 240600Z 12003MPS 080V150 9999 -SHRA FEW005 SCT011 FEW033CB BKN033 26/25 Q1005 NOSIG
Conditions at: ZGGG (GUANGZHOU/BAIYUN, CN) observed 0600 UTC 24 June 2019
Temperature: 26.0°C (79°F)
Dewpoint: 25.0°C (77°F) [RH = 94%]
Pressure (altimeter): 29.68 inches Hg (1005.0 mb)
Winds: from the ESE (120 degrees) at 7 MPH (6 knots; 3.1 m/s)
Visibility: 6 or more miles (10+ km)
Ceiling: 3300 feet AGL
Clouds: few clouds at 500 feet AGL
scattered clouds at 1100 feet AGL
few clouds at 3300 feet AGL
broken clouds at 3300 feet AGL
Weather: -SHRA  (light rain showers)

METAR text: ZGGG 240530Z 10003MPS 8000 -SHRA FEW004 SCT015 FEW033CB BKN033 26/24 Q1005 NOSIG
Conditions at: ZGGG (GUANGZHOU/BAIYUN, CN) observed 0530 UTC 24 June 2019
Temperature: 26.0°C (79°F)
Dewpoint: 24.0°C (75°F) [RH = 89%]
Pressure (altimeter): 29.68 inches Hg (1005.0 mb)
Winds: from the E (100 degrees) at 7 MPH (6 knots; 3.1 m/s)
Visibility: 5 miles ( 8 km)
Ceiling: 3300 feet AGL
Clouds: few clouds at 400 feet AGL
scattered clouds at 1500 feet AGL
few clouds at 3300 feet AGL
broken clouds at 3300 feet AGL
Weather: -SHRA  (light rain showers)

METAR text: ZGGG 240500Z 09003MPS 070V130 4000 -SHRA BR FEW003 SCT007 FEW033CB BKN033 26/25 Q1006 RESHRA NOSIG
Conditions at: ZGGG (GUANGZHOU/BAIYUN, CN) observed 0500 UTC 24 June 2019
Temperature: 26.0°C (79°F)
Dewpoint: 25.0°C (77°F) [RH = 94%]
Pressure (altimeter): 29.70 inches Hg (1006.0 mb)
Winds: from the E (90 degrees) at 7 MPH (6 knots; 3.1 m/s)
Visibility: 2.49 miles (4.01 km)
Ceiling: 3300 feet AGL
Clouds: few clouds at 300 feet AGL
scattered clouds at 700 feet AGL
few clouds at 3300 feet AGL
broken clouds at 3300 feet AGL
Weather: -SHRA BR  (light rain showers, mist)

METAR text: ZGGG 240430Z 08003MPS 030V130 2500 SHRA FEW003 SCT007 SCT030CB BKN030 25/24 Q1005 BECMG AT0510 4000 -SHRA
Conditions at: ZGGG (GUANGZHOU/BAIYUN, CN) observed 0430 UTC 24 June 2019
Temperature: 25.0°C (77°F)
Dewpoint: 24.0°C (75°F) [RH = 94%]
Pressure (altimeter): 29.68 inches Hg (1005.0 mb)
Winds: from the E (80 degrees) at 7 MPH (6 knots; 3.1 m/s)
Visibility: 1.55 miles (2.49 km)
Ceiling: 3000 feet AGL
Clouds: few clouds at 300 feet AGL
scattered clouds at 700 feet AGL
scattered clouds at 3000 feet AGL
broken clouds at 3000 feet AGL
Weather: SHRA  (rain showers)

METAR text: ZGGG 240400Z 00000MPS 1400 R20L/P2000 R20R/P2000 R19/P2000 +SHRA FEW003 SCT007 SCT030CB SCT030 26/24 Q1007 BECMG AT0510 4000 -SHRA
Conditions at: ZGGG (GUANGZHOU/BAIYUN, CN) observed 0400 UTC 24 June 2019
Temperature: 26.0°C (79°F)
Dewpoint: 24.0°C (75°F) [RH = 89%]
Pressure (altimeter): 29.73 inches Hg (1007.0 mb)
Winds: calm
Visibility: 0.87 miles (1.40 km)
Ceiling: at least 12,000 feet AGL
Clouds: few clouds at 300 feet AGL
scattered clouds at 700 feet AGL
scattered clouds at 3000 feet AGL
scattered clouds at 3000 feet AGL
Weather: +SHRA  (heavy rain showers)

METAR text: ZGGG 240330Z 06002MPS 350V100 9999 SCT007 FEW033CB BKN033 26/24 Q1006 BECMG AT0350 2000 TSRA
Conditions at: ZGGG (GUANGZHOU/BAIYUN, CN) observed 0330 UTC 24 June 2019
Temperature: 26.0°C (79°F)
Dewpoint: 24.0°C (75°F) [RH = 89%]
Pressure (altimeter): 29.70 inches Hg (1006.0 mb)
Winds: from the ENE (60 degrees) at 5 MPH (4 knots; 2.1 m/s)
Visibility: 6 or more miles (10+ km)
Ceiling: 3300 feet AGL
Clouds: scattered clouds at 700 feet AGL
few clouds at 3300 feet AGL
broken clouds at 3300 feet AGL
Weather: no significant weather observed at this time

METAR text: ZGGG 240300Z 11003MPS 9999 -SHRA FEW005 FEW050CB BKN050 25/24 Q1006 RETS BECMG AT0330 1000 +TSRA
Conditions at: ZGGG (GUANGZHOU/BAIYUN, CN) observed 0300 UTC 24 June 2019
Temperature: 25.0°C (77°F)
Dewpoint: 24.0°C (75°F) [RH = 94%]
Pressure (altimeter): 29.70 inches Hg (1006.0 mb)
Winds: from the ESE (110 degrees) at 7 MPH (6 knots; 3.1 m/s)
Visibility: 6 or more miles (10+ km)
Ceiling: 5000 feet AGL
Clouds: few clouds at 500 feet AGL
few clouds at 5000 feet AGL
broken clouds at 5000 feet AGL
Weather: -SHRA  (light rain showers)

METAR text: ZGGG 240230Z 08003MPS 060V120 6000 -TSRA SCT009 FEW033CB BKN033 25/24 Q1006 RESHRA BECMG AT0320 -SHRA
Conditions at: ZGGG (GUANGZHOU/BAIYUN, CN) observed 0230 UTC 24 June 2019
Temperature: 25.0°C (77°F)
Dewpoint: 24.0°C (75°F) [RH = 94%]
Pressure (altimeter): 29.70 inches Hg (1006.0 mb)
Winds: from the E (80 degrees) at 7 MPH (6 knots; 3.1 m/s)
Visibility: 4 miles ( 6 km)
Ceiling: 3300 feet AGL
Clouds: scattered clouds at 900 feet AGL
few clouds at 3300 feet AGL
broken clouds at 3300 feet AGL
Weather: -TSRA  (light rain associated with thunderstorm(s))

METAR text: ZGGG 240200Z 08003MPS 010V110 2800 TSRA SCT007 SCT033CB BKN033 25/24 Q1006 BECMG AT0230 4000 -TSRA
Conditions at: ZGGG (GUANGZHOU/BAIYUN, CN) observed 0200 UTC 24 June 2019
Temperature: 25.0°C (77°F)
Dewpoint: 24.0°C (75°F) [RH = 94%]
Pressure (altimeter): 29.70 inches Hg (1006.0 mb)
Winds: from the E (80 degrees) at 7 MPH (6 knots; 3.1 m/s)
Visibility: 1.74 miles (2.80 km)
Ceiling: 3300 feet AGL
Clouds: scattered clouds at 700 feet AGL
scattered clouds at 3300 feet AGL
broken clouds at 3300 feet AGL
Weather: TSRA  (rain associated with thunderstorm(s))

METAR text: ZGGG 240130Z 04002MPS 350V080 1800 TSRA SCT007 SCT026CB BKN026 25/24 Q1006 BECMG AT0230 3200 -TSRA
Conditions at: ZGGG (GUANGZHOU/BAIYUN, CN) observed 0130 UTC 24 June 2019
Temperature: 25.0°C (77°F)
Dewpoint: 24.0°C (75°F) [RH = 94%]
Pressure (altimeter): 29.70 inches Hg (1006.0 mb)
Winds: from the NE (40 degrees) at 5 MPH (4 knots; 2.1 m/s)
Visibility: 1.12 miles (1.80 km)
Ceiling: 2600 feet AGL
Clouds: scattered clouds at 700 feet AGL
scattered clouds at 2600 feet AGL
broken clouds at 2600 feet AGL
Weather: TSRA  (rain associated with thunderstorm(s))

METAR text: ZGGG 240100Z 05003MPS 3000 TSRA SCT009 SCT026CB BKN026 25/24 Q1006 BECMG AT0130 1000 +TSRA
Conditions at: ZGGG (GUANGZHOU/BAIYUN, CN) observed 0100 UTC 24 June 2019
Temperature: 25.0°C (77°F)
Dewpoint: 24.0°C (75°F) [RH = 94%]
Pressure (altimeter): 29.70 inches Hg (1006.0 mb)
Winds: from the NE (50 degrees) at 7 MPH (6 knots; 3.1 m/s)
Visibility: 1.86 miles (2.99 km)
Ceiling: 2600 feet AGL
Clouds: scattered clouds at 900 feet AGL
scattered clouds at 2600 feet AGL
broken clouds at 2600 feet AGL
Weather: TSRA  (rain associated with thunderstorm(s))

METAR text: ZGGG 240030Z 35004MPS 320V020 1200 R02R/P2000 R02L/P2000 R01/P2000 +SHRA SCT007 SCT026CB SCT026 25/24 Q1006 NOSIG
Conditions at: ZGGG (GUANGZHOU/BAIYUN, CN) observed 0030 UTC 24 June 2019
Temperature: 25.0°C (77°F)
Dewpoint: 24.0°C (75°F) [RH = 94%]
Pressure (altimeter): 29.70 inches Hg (1006.0 mb)
Winds: from the N (350 degrees) at 9 MPH (8 knots; 4.1 m/s)
Visibility: 0.75 miles (1.21 km)
Ceiling: at least 12,000 feet AGL
Clouds: scattered clouds at 700 feet AGL
scattered clouds at 2600 feet AGL
scattered clouds at 2600 feet AGL
Weather: +SHRA  (heavy rain showers)

Forecast for: ZGGG (GUANGZHOU/BAIYUN, CN)
Text: TAF ZGGG 250914Z 2512/2612 21003MPS 8000 BKN033 TX31/2607Z TN26/2522Z
Forecast period: 1200 UTC 25 June 2019 to 1200 UTC 26 June 2019
Forecast type: FROM: standard forecast or significant change
Winds: from the SSW (210 degrees) at 7 MPH (6 knots; 3.1 m/s)
Visibility: 5 miles (8 km)
Ceiling: 3300 feet AGL
Clouds: broken clouds at 3300 feet AGL
Weather: no significant weather forecast for this period
Text: TEMPO 2518/2524 2000 TSRA FEW011 SCT030CB BKN033
Forecast period: 1800 UTC 25 June 2019 to 0000 UTC 26 June 2019
Forecast type: TEMPORARY: The following changes expected for less than half the time period
Visibility: 1.24 miles (2.00 km)
Ceiling: 3300 feet AGL
Clouds: few clouds at 1100 feet AGL
scattered clouds at 3000 feet AGL
broken clouds at 3300 feet AGL
Weather: TSRA  (rain associated with thunderstorm(s))
Text: TEMPO 2606/2612 2000 TSRA FEW011 SCT030CB BKN033
Forecast period: 0600 to 1200 UTC 26 June 2019
Forecast type: TEMPORARY: The following changes expected for less than half the time period
Visibility: 1.24 miles (2.00 km)
Ceiling: 3300 feet AGL
Clouds: few clouds at 1100 feet AGL
scattered clouds at 3000 feet AGL
broken clouds at 3300 feet AGL
Weather: TSRA  (rain associated with thunderstorm(s))